Fraternity — ONGB — position and weather

sailwx.info

Track history (hours):
 
Tides and Currents Weather Stations Pressure Air Temp Water Temp Dewpoint Dewpoint Depression Visibility Wind Speed Wind Dir Waves Ship Positions

Fraternity

Last reported at 2017-Nov-18 18:31 UTC. Time now 2017-Dec-17 06:30 UTC.
Position N 34°10' W 008°29'.
Warning: this ship's position is 28 days out of date.

Length 274 m; draft 9 m.

Type: Tanker. MMSI: 205559000.

Date/timePositionNaut miles runAvg speedWind from/ knotsBaromVisibWave heightAir tempDewpointWater temp
2017-Nov-18 18:31N 34°10' W 008°29'0 8.6
2017-Nov-18 18:30N 34°10' W 008°28'178 8.2
2017-Nov-17 20:49N 35°58' W 005°36'3 7.2
2017-Nov-17 20:21N 35°59' W 005°32'2 7.0
2017-Nov-17 20:00N 35°59' W 005°29'3 6.7
2017-Nov-17 19:29N 36°01' W 005°25'3 6.8
2017-Nov-17 19:00N 36°02' W 005°21'4 8.3
2017-Nov-17 18:30N 36°03' W 005°17'5 8.7
2017-Nov-17 17:58N 36°05' W 005°11'1 0.0
2017-Nov-16 07:38N 36°06' W 005°12'0 1.9
2017-Nov-16 07:30N 36°06' W 005°12'1 1.4
2017-Nov-16 07:00N 36°06' W 005°11'1 1.2
2017-Nov-16 06:30N 36°07' W 005°11'1 1.0
2017-Nov-16 06:00N 36°07' W 005°10'1 1.0
2017-Nov-16 05:30N 36°07' W 005°10'0 0.9
2017-Nov-16 05:00N 36°08' W 005°09'1 1.1
2017-Nov-16 04:30N 36°08' W 005°09'1 1.4
2017-Nov-16 04:00N 36°09' W 005°09'1 1.1
2017-Nov-16 03:30N 36°09' W 005°08'1 1.1
2017-Nov-16 03:00N 36°10' W 005°08'0 0.8
2017-Nov-16 02:30N 36°10' W 005°08'0 0.7
2017-Nov-16 02:00N 36°10' W 005°08'0 0.3
2017-Nov-16 01:27N 36°11' W 005°08'0 0.2
2017-Nov-16 00:55N 36°11' W 005°08'0 0.2
2017-Nov-16 00:30N 36°11' W 005°08'0 0.4
2017-Nov-16 00:00N 36°11' W 005°08'0 0.5
2017-Nov-15 23:29N 36°10' W 005°08'0 0.9
2017-Nov-15 23:00N 36°10' W 005°07'1 1.2
2017-Nov-15 22:29N 36°10' W 005°07'1 1.5
2017-Nov-15 22:00N 36°09' W 005°06'1 1.6
2017-Nov-15 21:23N 36°09' W 005°05'  
2017-Nov-12 21:41N 36°13' W 005°05'0 1.5
2017-Nov-12 21:28N 36°12' W 005°05'2 3.8
2017-Nov-12 20:53N 36°14' W 005°03'3 2.2
2017-Nov-12 19:30N 36°10' W 005°03'6 2.2
2017-Nov-12 16:40N 36°08' W 004°56'1 5.7
2017-Nov-12 16:30N 36°08' W 004°55'12 1.1
2017-Nov-12 06:18N 36°05' W 005°09'0 0.1
2017-Nov-12 05:28N 36°05' W 005°09'0 0.4
2017-Nov-12 05:00N 36°05' W 005°09'1 0.6
2017-Nov-12 04:09N 36°06' W 005°08'0 0.6
2017-Nov-12 04:00N 36°06' W 005°08'0 0.4
2017-Nov-12 03:30N 36°06' W 005°08'0 0.4
2017-Nov-12 03:00N 36°06' W 005°08'0 0.5
2017-Nov-12 02:30N 36°06' W 005°08'0 0.4
2017-Nov-12 02:00N 36°07' W 005°08'2 0.7
2017-Nov-11 22:50N 36°08' W 005°06'0 0.8
2017-Nov-11 22:23N 36°08' W 005°06'0 0.7
2017-Nov-11 22:00N 36°09' W 005°06'0 0.7
2017-Nov-11 21:30N 36°09' W 005°06'0 0.5
2017-Nov-11 20:38N 36°09' W 005°06'0 0.4
2017-Nov-11 20:30N 36°09' W 005°06'0 0.4
2017-Nov-11 19:56N 36°10' W 005°06'0 0.2
2017-Nov-11 19:30N 36°10' W 005°06'0 0.2
2017-Nov-11 19:00N 36°10' W 005°06'0 0.0
2017-Nov-11 18:26N 36°10' W 005°06'0 0.6
2017-Nov-11 18:00N 36°09' W 005°06'0 0.0
2017-Nov-11 17:30N 36°09' W 005°06'1 1.3
2017-Nov-11 17:00N 36°09' W 005°07'0 0.0
2017-Nov-11 12:14N 36°09' W 005°07'1 0.3
2017-Nov-11 09:47N 36°09' W 005°07'5 1.0
2017-Nov-11 04:39N 36°05' W 005°10'1 7.3
2017-Nov-11 04:30N 36°04' W 005°11'4 7.4
2017-Nov-11 04:00N 36°05' W 005°15'4 7.3
2017-Nov-11 03:30N 36°05' W 005°20'3 6.3
2017-Nov-11 02:57N 36°07' W 005°23'1 0.4
2017-Nov-11 00:36N 36°08' W 005°23'0 0.2
2017-Nov-11 00:30N 36°08' W 005°23'0 0.1
2017-Nov-11 00:00N 36°08' W 005°23'0 0.2
2017-Nov-10 23:30N 36°08' W 005°23'0 0.1
2017-Nov-10 22:48N 36°08' W 005°23'0 0.2
2017-Nov-10 22:30N 36°08' W 005°23'0 0.1
2017-Nov-10 21:54N 36°08' W 005°23'0 0.1
2017-Nov-10 21:30N 36°08' W 005°23'0 0.0
2017-Nov-10 21:00N 36°08' W 005°23'0 0.1
2017-Nov-10 20:27N 36°08' W 005°23'0 0.0
2017-Nov-10 20:00N 36°08' W 005°23'0 0.1
2017-Nov-10 16:00N 36°08' W 005°23'0 0.1
2017-Nov-10 13:18N 36°08' W 005°23'0 0.1
2017-Nov-10 13:00N 36°08' W 005°23'1 1.8
2017-Nov-10 12:16N 36°06' W 005°23'1 3.6
2017-Nov-10 11:54N 36°05' W 005°22'2 5.0
2017-Nov-10 11:30N 36°05' W 005°19'3 6.0
2017-Nov-10 11:00N 36°05' W 005°16'2 5.0
2017-Nov-10 10:30N 36°06' W 005°13'1 1.2
2017-Nov-10 09:59N 36°06' W 005°14'0 0.5
2017-Nov-10 09:30N 36°07' W 005°14'5 1.7
2017-Nov-10 06:43N 36°07' W 005°08'1 4.0
2017-Nov-10 06:30N 36°08' W 005°09'0 0.9
2017-Nov-10 05:59N 36°08' W 005°09'0 0.5
2017-Nov-10 05:28N 36°08' W 005°10'0 0.5
2017-Nov-10 04:59N 36°08' W 005°10'1 1.1
2017-Nov-10 04:27N 36°07' W 005°10'2 5.2
2017-Nov-10 04:00N 36°05' W 005°12'2 3.5
2017-Nov-10 03:30N 36°05' W 005°14'0 0.6
2017-Nov-10 03:00N 36°05' W 005°14'0 1.0
2017-Nov-10 02:30N 36°05' W 005°13'0 0.9
2017-Nov-10 02:00N 36°05' W 005°13'0 0.2
2017-Nov-10 01:30N 36°06' W 005°13'0 1.0
2017-Nov-10 01:00N 36°06' W 005°13'2 3.5
2017-Nov-10 00:30N 36°07' W 005°15'1 1.4
2017-Nov-10 00:00N 36°07' W 005°14'0 0.7
2017-Nov-09 23:30N 36°07' W 005°14'0 0.9
2017-Nov-09 22:56N 36°07' W 005°13'0 0.4
2017-Nov-09 22:30N 36°07' W 005°13'1 1.0
2017-Nov-09 22:00N 36°07' W 005°13'0 0.5
2017-Nov-09 21:30N 36°07' W 005°12'  
Track history (hours):
 
Tides and Currents Weather Stations Pressure Air Temp Water Temp Dewpoint Dewpoint Depression Visibility Wind Speed Wind Dir Waves Ship Positions

Fraternity

Last reported at 2017-Nov-18 18:31 UTC. Time now 2017-Dec-17 06:30 UTC.
Position N 34°10' W 008°29'.
Warning: this ship's position is 28 days out of date.

Length 274 m; draft 9 m.

Type: Tanker. MMSI: 205559000.

Date/timePositionNaut miles runAvg speedWind from/ knotsBaromVisibWave heightAir tempDewpointWater temp
2017-Nov-18 18:31N 34°10' W 008°29'0 8.6
2017-Nov-18 18:30N 34°10' W 008°28'178 8.2
2017-Nov-17 20:49N 35°58' W 005°36'3 7.2
2017-Nov-17 20:21N 35°59' W 005°32'2 7.0
2017-Nov-17 20:00N 35°59' W 005°29'3 6.7
2017-Nov-17 19:29N 36°01' W 005°25'3 6.8
2017-Nov-17 19:00N 36°02' W 005°21'4 8.3
2017-Nov-17 18:30N 36°03' W 005°17'5 8.7
2017-Nov-17 17:58N 36°05' W 005°11'1 0.0
2017-Nov-16 07:38N 36°06' W 005°12'0 1.9
2017-Nov-16 07:30N 36°06' W 005°12'1 1.4
2017-Nov-16 07:00N 36°06' W 005°11'1 1.2
2017-Nov-16 06:30N 36°07' W 005°11'1 1.0
2017-Nov-16 06:00N 36°07' W 005°10'1 1.0
2017-Nov-16 05:30N 36°07' W 005°10'0 0.9
2017-Nov-16 05:00N 36°08' W 005°09'1 1.1
2017-Nov-16 04:30N 36°08' W 005°09'1 1.4
2017-Nov-16 04:00N 36°09' W 005°09'1 1.1
2017-Nov-16 03:30N 36°09' W 005°08'1 1.1
2017-Nov-16 03:00N 36°10' W 005°08'0 0.8
2017-Nov-16 02:30N 36°10' W 005°08'0 0.7
2017-Nov-16 02:00N 36°10' W 005°08'0 0.3
2017-Nov-16 01:27N 36°11' W 005°08'0 0.2
2017-Nov-16 00:55N 36°11' W 005°08'0 0.2
2017-Nov-16 00:30N 36°11' W 005°08'0 0.4
2017-Nov-16 00:00N 36°11' W 005°08'0 0.5
2017-Nov-15 23:29N 36°10' W 005°08'0 0.9
2017-Nov-15 23:00N 36°10' W 005°07'1 1.2
2017-Nov-15 22:29N 36°10' W 005°07'1 1.5
2017-Nov-15 22:00N 36°09' W 005°06'1 1.6
2017-Nov-15 21:23N 36°09' W 005°05'  
2017-Nov-12 21:41N 36°13' W 005°05'0 1.5
2017-Nov-12 21:28N 36°12' W 005°05'2 3.8
2017-Nov-12 20:53N 36°14' W 005°03'3 2.2
2017-Nov-12 19:30N 36°10' W 005°03'6 2.2
2017-Nov-12 16:40N 36°08' W 004°56'1 5.7
2017-Nov-12 16:30N 36°08' W 004°55'12 1.1
2017-Nov-12 06:18N 36°05' W 005°09'0 0.1
2017-Nov-12 05:28N 36°05' W 005°09'0 0.4
2017-Nov-12 05:00N 36°05' W 005°09'1 0.6
2017-Nov-12 04:09N 36°06' W 005°08'0 0.6
2017-Nov-12 04:00N 36°06' W 005°08'0 0.4
2017-Nov-12 03:30N 36°06' W 005°08'0 0.4
2017-Nov-12 03:00N 36°06' W 005°08'0 0.5
2017-Nov-12 02:30N 36°06' W 005°08'0 0.4
2017-Nov-12 02:00N 36°07' W 005°08'2 0.7
2017-Nov-11 22:50N 36°08' W 005°06'0 0.8
2017-Nov-11 22:23N 36°08' W 005°06'0 0.7
2017-Nov-11 22:00N 36°09' W 005°06'0 0.7
2017-Nov-11 21:30N 36°09' W 005°06'0 0.5
2017-Nov-11 20:38N 36°09' W 005°06'0 0.4
2017-Nov-11 20:30N 36°09' W 005°06'0 0.4
2017-Nov-11 19:56N 36°10' W 005°06'0 0.2
2017-Nov-11 19:30N 36°10' W 005°06'0 0.2
2017-Nov-11 19:00N 36°10' W 005°06'0 0.0
2017-Nov-11 18:26N 36°10' W 005°06'0 0.6
2017-Nov-11 18:00N 36°09' W 005°06'0 0.0
2017-Nov-11 17:30N 36°09' W 005°06'1 1.3
2017-Nov-11 17:00N 36°09' W 005°07'0 0.0
2017-Nov-11 12:14N 36°09' W 005°07'1 0.3
2017-Nov-11 09:47N 36°09' W 005°07'5 1.0
2017-Nov-11 04:39N 36°05' W 005°10'1 7.3
2017-Nov-11 04:30N 36°04' W 005°11'4 7.4
2017-Nov-11 04:00N 36°05' W 005°15'4 7.3
2017-Nov-11 03:30N 36°05' W 005°20'3 6.3
2017-Nov-11 02:57N 36°07' W 005°23'1 0.4
2017-Nov-11 00:36N 36°08' W 005°23'0 0.2
2017-Nov-11 00:30N 36°08' W 005°23'0 0.1
2017-Nov-11 00:00N 36°08' W 005°23'0 0.2
2017-Nov-10 23:30N 36°08' W 005°23'0 0.1
2017-Nov-10 22:48N 36°08' W 005°23'0 0.2
2017-Nov-10 22:30N 36°08' W 005°23'0 0.1
2017-Nov-10 21:54N 36°08' W 005°23'0 0.1
2017-Nov-10 21:30N 36°08' W 005°23'0 0.0
2017-Nov-10 21:00N 36°08' W 005°23'0 0.1
2017-Nov-10 20:27N 36°08' W 005°23'0 0.0
2017-Nov-10 20:00N 36°08' W 005°23'0 0.1
2017-Nov-10 16:00N 36°08' W 005°23'0 0.1
2017-Nov-10 13:18N 36°08' W 005°23'0 0.1
2017-Nov-10 13:00N 36°08' W 005°23'1 1.8
2017-Nov-10 12:16N 36°06' W 005°23'1 3.6
2017-Nov-10 11:54N 36°05' W 005°22'2 5.0
2017-Nov-10 11:30N 36°05' W 005°19'3 6.0
2017-Nov-10 11:00N 36°05' W 005°16'2 5.0
2017-Nov-10 10:30N 36°06' W 005°13'1 1.2
2017-Nov-10 09:59N 36°06' W 005°14'0 0.5
2017-Nov-10 09:30N 36°07' W 005°14'5 1.7
2017-Nov-10 06:43N 36°07' W 005°08'1 4.0
2017-Nov-10 06:30N 36°08' W 005°09'0 0.9
2017-Nov-10 05:59N 36°08' W 005°09'0 0.5
2017-Nov-10 05:28N 36°08' W 005°10'0 0.5
2017-Nov-10 04:59N 36°08' W 005°10'1 1.1
2017-Nov-10 04:27N 36°07' W 005°10'2 5.2
2017-Nov-10 04:00N 36°05' W 005°12'2 3.5
2017-Nov-10 03:30N 36°05' W 005°14'0 0.6
2017-Nov-10 03:00N 36°05' W 005°14'0 1.0
2017-Nov-10 02:30N 36°05' W 005°13'0 0.9
2017-Nov-10 02:00N 36°05' W 005°13'0 0.2
2017-Nov-10 01:30N 36°06' W 005°13'0 1.0
2017-Nov-10 01:00N 36°06' W 005°13'2 3.5
2017-Nov-10 00:30N 36°07' W 005°15'1 1.4
2017-Nov-10 00:00N 36°07' W 005°14'0 0.7
2017-Nov-09 23:30N 36°07' W 005°14'0 0.9
2017-Nov-09 22:56N 36°07' W 005°13'0 0.4
2017-Nov-09 22:30N 36°07' W 005°13'1 1.0
2017-Nov-09 22:00N 36°07' W 005°13'0 0.5
2017-Nov-09 21:30N 36°07' W 005°12'  

Dump ship's entire track history